sensor_id;sensor_type;location;lat;lon;timestamp;pressure;altitude;pressure_sealevel;temperature;humidity
46682;BME280;34101;53.430;-2.224;2022-09-13T00:00:50;155662.50;;;12.81;100.00
46682;BME280;34101;53.430;-2.224;2022-09-13T00:03:18;155651.98;;;12.77;100.00
46682;BME280;34101;53.430;-2.224;2022-09-13T00:05:46;155636.84;;;12.71;100.00
46682;BME280;34101;53.430;-2.224;2022-09-13T00:08:15;155612.64;;;12.61;100.00
46682;BME280;34101;53.430;-2.224;2022-09-13T00:10:44;155607.70;;;12.59;100.00
46682;BME280;34101;53.430;-2.224;2022-09-13T00:13:14;155616.04;;;12.63;100.00
46682;BME280;34101;53.430;-2.224;2022-09-13T00:15:43;155613.45;;;12.62;100.00
46682;BME280;34101;53.430;-2.224;2022-09-13T00:18:11;155616.12;;;12.63;100.00
46682;BME280;34101;53.430;-2.224;2022-09-13T00:20:39;155613.61;;;12.62;100.00
46682;BME280;34101;53.430;-2.224;2022-09-13T00:23:07;155609.64;;;12.60;100.00
46682;BME280;34101;53.430;-2.224;2022-09-13T00:25:34;155598.07;;;12.56;100.00
46682;BME280;34101;53.430;-2.224;2022-09-13T00:28:02;155594.42;;;12.54;100.00
46682;BME280;34101;53.430;-2.224;2022-09-13T00:30:29;155595.80;;;12.55;100.00
46682;BME280;34101;53.430;-2.224;2022-09-13T00:32:56;155586.82;;;12.51;100.00
46682;BME280;34101;53.430;-2.224;2022-09-13T00:35:24;155573.14;;;12.46;100.00
46682;BME280;34101;53.430;-2.224;2022-09-13T00:37:51;155562.94;;;12.41;100.00
46682;BME280;34101;53.430;-2.224;2022-09-13T00:40:19;155566.82;;;12.43;100.00
46682;BME280;34101;53.430;-2.224;2022-09-13T00:42:47;155566.18;;;12.43;100.00
46682;BME280;34101;53.430;-2.224;2022-09-13T00:45:15;155562.53;;;12.41;100.00
46682;BME280;34101;53.430;-2.224;2022-09-13T00:47:46;155564.96;;;12.42;100.00
46682;BME280;34101;53.430;-2.224;2022-09-13T00:50:19;155565.21;;;12.42;100.00
46682;BME280;34101;53.430;-2.224;2022-09-13T00:52:51;155573.06;;;12.46;100.00
46682;BME280;34101;53.430;-2.224;2022-09-13T00:55:25;155574.03;;;12.46;100.00
46682;BME280;34101;53.430;-2.224;2022-09-13T00:57:57;155577.59;;;12.47;100.00
46682;BME280;34101;53.430;-2.224;2022-09-13T01:00:27;155584.31;;;12.50;100.00
46682;BME280;34101;53.430;-2.224;2022-09-13T01:02:59;155581.23;;;12.49;100.00
46682;BME280;34101;53.430;-2.224;2022-09-13T01:05:32;155576.62;;;12.47;100.00
46682;BME280;34101;53.430;-2.224;2022-09-13T01:08:03;155578.64;;;12.48;100.00
46682;BME280;34101;53.430;-2.224;2022-09-13T01:10:33;155571.92;;;12.45;100.00
46682;BME280;34101;53.430;-2.224;2022-09-13T01:13:03;155562.45;;;12.41;100.00
46682;BME280;34101;53.430;-2.224;2022-09-13T01:15:32;155554.44;;;12.38;100.00
46682;BME280;34101;53.430;-2.224;2022-09-13T01:18:00;155542.30;;;12.33;100.00
46682;BME280;34101;53.430;-2.224;2022-09-13T01:20:47;155533.56;;;12.30;100.00
46682;BME280;34101;53.430;-2.224;2022-09-13T01:23:40;155518.27;;;12.23;100.00
46682;BME280;34101;53.430;-2.224;2022-09-13T01:26:34;155486.30;;;12.11;100.00
46682;BME280;34101;53.430;-2.224;2022-09-13T01:29:26;155480.96;;;12.08;100.00
46682;BME280;34101;53.430;-2.224;2022-09-13T01:32:07;155482.01;;;12.09;100.00
46682;BME280;34101;53.430;-2.224;2022-09-13T01:34:48;155482.98;;;12.09;100.00
46682;BME280;34101;53.430;-2.224;2022-09-13T01:37:32;155447.54;;;11.95;100.00
46682;BME280;34101;53.430;-2.224;2022-09-13T01:40:11;155432.74;;;11.89;100.00
46682;BME280;34101;53.430;-2.224;2022-09-13T01:42:54;155424.32;;;11.86;100.00
46682;BME280;34101;53.430;-2.224;2022-09-13T01:45:35;155423.03;;;11.85;100.00
46682;BME280;34101;53.430;-2.224;2022-09-13T01:48:11;155431.85;;;11.89;100.00
46682;BME280;34101;53.430;-2.224;2022-09-13T01:50:45;155440.26;;;11.92;100.00
46682;BME280;34101;53.430;-2.224;2022-09-13T01:53:19;155427.40;;;11.87;100.00
46682;BME280;34101;53.430;-2.224;2022-09-13T01:55:54;155425.94;;;11.86;100.00
46682;BME280;34101;53.430;-2.224;2022-09-13T01:58:28;155432.17;;;11.89;100.00
46682;BME280;34101;53.430;-2.224;2022-09-13T02:01:02;155427.88;;;11.87;100.00
46682;BME280;34101;53.430;-2.224;2022-09-13T02:03:37;155426.02;;;11.86;100.00
46682;BME280;34101;53.430;-2.224;2022-09-13T02:06:11;155410.08;;;11.80;100.00
46682;BME280;34101;53.430;-2.224;2022-09-13T02:08:44;155410.16;;;11.80;100.00
46682;BME280;34101;53.430;-2.224;2022-09-13T02:11:14;155406.68;;;11.79;100.00
46682;BME280;34101;53.430;-2.224;2022-09-13T02:13:46;155398.43;;;11.75;100.00
46682;BME280;34101;53.430;-2.224;2022-09-13T02:16:18;155397.46;;;11.75;100.00
46682;BME280;34101;53.430;-2.224;2022-09-13T02:18:51;155394.71;;;11.74;100.00
46682;BME280;34101;53.430;-2.224;2022-09-13T02:21:25;155389.69;;;11.72;100.00
46682;BME280;34101;53.430;-2.224;2022-09-13T02:23:57;155385.00;;;11.70;100.00
46682;BME280;34101;53.430;-2.224;2022-09-13T02:26:28;155379.18;;;11.67;100.00
46682;BME280;34101;53.430;-2.224;2022-09-13T02:29:00;155363.89;;;11.61;100.00
46682;BME280;34101;53.430;-2.224;2022-09-13T02:31:32;155352.24;;;11.57;100.00
46682;BME280;34101;53.430;-2.224;2022-09-13T02:34:04;155335.66;;;11.50;100.00
46682;BME280;34101;53.430;-2.224;2022-09-13T02:36:35;155330.07;;;11.48;100.00
46682;BME280;34101;53.430;-2.224;2022-09-13T02:39:09;155328.78;;;11.47;100.00
46682;BME280;34101;53.430;-2.224;2022-09-13T02:41:42;155324.33;;;11.45;100.00
46682;BME280;34101;53.430;-2.224;2022-09-13T02:44:17;155325.46;;;11.46;100.00
46682;BME280;34101;53.430;-2.224;2022-09-13T02:46:57;155308.07;;;11.39;100.00
46682;BME280;34101;53.430;-2.224;2022-09-13T02:49:28;155294.24;;;11.33;100.00
46682;BME280;34101;53.430;-2.224;2022-09-13T02:52:05;155284.94;;;11.30;100.00
46682;BME280;34101;53.430;-2.224;2022-09-13T02:54:39;155274.51;;;11.25;100.00
46682;BME280;34101;53.430;-2.224;2022-09-13T02:57:13;155273.94;;;11.25;100.00
46682;BME280;34101;53.430;-2.224;2022-09-13T02:59:41;155269.90;;;11.23;100.00
46682;BME280;34101;53.430;-2.224;2022-09-13T03:02:11;155260.19;;;11.20;100.00
46682;BME280;34101;53.430;-2.224;2022-09-13T03:04:40;155251.70;;;11.16;100.00
46682;BME280;34101;53.430;-2.224;2022-09-13T03:07:10;155244.83;;;11.13;100.00
46682;BME280;34101;53.430;-2.224;2022-09-13T03:09:41;155236.33;;;11.10;100.00
46682;BME280;34101;53.430;-2.224;2022-09-13T03:12:24;155235.93;;;11.10;100.00
46682;BME280;34101;53.430;-2.224;2022-09-13T03:15:03;155235.69;;;11.10;100.00
46682;BME280;34101;53.430;-2.224;2022-09-13T03:17:45;155231.72;;;11.08;100.00
46682;BME280;34101;53.430;-2.224;2022-09-13T03:20:16;155234.80;;;11.09;100.00
46682;BME280;34101;53.430;-2.224;2022-09-13T03:23:11;155231.32;;;11.08;100.00
46682;BME280;34101;53.430;-2.224;2022-09-13T03:26:01;155222.26;;;11.04;100.00
46682;BME280;34101;53.430;-2.224;2022-09-13T03:28:38;155204.80;;;10.97;100.00
46682;BME280;34101;53.430;-2.224;2022-09-13T03:31:11;155194.45;;;10.93;100.00
46682;BME280;34101;53.430;-2.224;2022-09-13T03:33:45;155195.09;;;10.93;100.00
46682;BME280;34101;53.430;-2.224;2022-09-13T03:36:19;155196.06;;;10.94;100.00
46682;BME280;34101;53.430;-2.224;2022-09-13T03:38:55;155186.60;;;10.90;100.00
46682;BME280;34101;53.430;-2.224;2022-09-13T03:41:30;155175.61;;;10.86;100.00
46682;BME280;34101;53.430;-2.224;2022-09-13T03:44:01;155177.63;;;10.86;100.00
46682;BME280;34101;53.430;-2.224;2022-09-13T03:46:35;155182.56;;;10.88;100.00
46682;BME280;34101;53.430;-2.224;2022-09-13T03:49:07;155168.00;;;10.82;100.00
46682;BME280;34101;53.430;-2.224;2022-09-13T03:51:36;155167.28;;;10.82;100.00
46682;BME280;34101;53.430;-2.224;2022-09-13T03:54:07;155172.45;;;10.84;100.00
46682;BME280;34101;53.430;-2.224;2022-09-13T03:56:36;155177.79;;;10.86;100.00
46682;BME280;34101;53.430;-2.224;2022-09-13T03:59:03;155170.83;;;10.84;100.00
46682;BME280;34101;53.430;-2.224;2022-09-13T04:01:31;155158.63;;;10.79;100.00
46682;BME280;34101;53.430;-2.224;2022-09-13T04:03:58;155150.86;;;10.76;100.00
46682;BME280;34101;53.430;-2.224;2022-09-13T04:06:27;155147.23;;;10.74;100.00
46682;BME280;34101;53.430;-2.224;2022-09-13T04:08:54;155144.40;;;10.73;100.00
46682;BME280;34101;53.430;-2.224;2022-09-13T04:11:22;155143.59;;;10.73;100.00
46682;BME280;34101;53.430;-2.224;2022-09-13T04:13:49;155114.72;;;10.61;100.00
46682;BME280;34101;53.430;-2.224;2022-09-13T04:16:16;155098.56;;;10.54;100.00
46682;BME280;34101;53.430;-2.224;2022-09-13T04:18:43;155095.08;;;10.53;100.00
46682;BME280;34101;53.430;-2.224;2022-09-13T04:21:11;155103.00;;;10.56;100.00
46682;BME280;34101;53.430;-2.224;2022-09-13T04:23:39;155107.21;;;10.58;100.00
46682;BME280;34101;53.430;-2.224;2022-09-13T04:26:07;155083.28;;;10.48;100.00
46682;BME280;34101;53.430;-2.224;2022-09-13T04:28:34;155076.08;;;10.45;100.00
46682;BME280;34101;53.430;-2.224;2022-09-13T04:31:01;155077.62;;;10.46;100.00
46682;BME280;34101;53.430;-2.224;2022-09-13T04:33:29;155067.84;;;10.42;100.00
46682;BME280;34101;53.430;-2.224;2022-09-13T04:35:58;155065.82;;;10.41;100.00
46682;BME280;34101;53.430;-2.224;2022-09-13T04:38:26;155059.59;;;10.39;100.00
46682;BME280;34101;53.430;-2.224;2022-09-13T04:40:53;155047.30;;;10.34;100.00
46682;BME280;34101;53.430;-2.224;2022-09-13T04:43:21;155051.51;;;10.36;100.00
46682;BME280;34101;53.430;-2.224;2022-09-13T04:45:48;155051.35;;;10.35;100.00
46682;BME280;34101;53.430;-2.224;2022-09-13T04:48:15;155057.97;;;10.38;100.00
46682;BME280;34101;53.430;-2.224;2022-09-13T04:50:43;155065.33;;;10.41;100.00
46682;BME280;34101;53.430;-2.224;2022-09-13T04:53:10;155060.48;;;10.39;100.00
46682;BME280;34101;53.430;-2.224;2022-09-13T04:55:38;155048.11;;;10.34;100.00
46682;BME280;34101;53.430;-2.224;2022-09-13T04:58:05;155048.27;;;10.34;100.00
46682;BME280;34101;53.430;-2.224;2022-09-13T05:00:33;155051.75;;;10.36;100.00
46682;BME280;34101;53.430;-2.224;2022-09-13T05:03:01;155058.38;;;10.38;100.00
46682;BME280;34101;53.430;-2.224;2022-09-13T05:05:28;155063.31;;;10.40;100.00
46682;BME280;34101;53.430;-2.224;2022-09-13T05:07:56;155054.50;;;10.37;100.00
46682;BME280;34101;53.430;-2.224;2022-09-13T05:10:23;155052.80;;;10.36;100.00
46682;BME280;34101;53.430;-2.224;2022-09-13T05:12:51;155047.87;;;10.34;100.00
46682;BME280;34101;53.430;-2.224;2022-09-13T05:15:19;155043.59;;;10.32;100.00
46682;BME280;34101;53.430;-2.224;2022-09-13T05:17:46;155043.26;;;10.32;100.00
46682;BME280;34101;53.430;-2.224;2022-09-13T05:20:14;155027.10;;;10.26;100.00
46682;BME280;34101;53.430;-2.224;2022-09-13T05:22:41;155000.59;;;10.15;100.00
46682;BME280;34101;53.430;-2.224;2022-09-13T05:25:09;155007.78;;;10.18;100.00
46682;BME280;34101;53.430;-2.224;2022-09-13T05:27:36;155016.27;;;10.21;100.00
46682;BME280;34101;53.430;-2.224;2022-09-13T05:30:04;155016.75;;;10.22;100.00
46682;BME280;34101;53.430;-2.224;2022-09-13T05:32:31;155008.26;;;10.18;100.00
46682;BME280;34101;53.430;-2.224;2022-09-13T05:34:59;155006.65;;;10.17;100.00
46682;BME280;34101;53.430;-2.224;2022-09-13T05:37:26;155005.76;;;10.17;100.00
46682;BME280;34101;53.430;-2.224;2022-09-13T05:39:54;155006.73;;;10.17;100.00
46682;BME280;34101;53.430;-2.224;2022-09-13T05:42:21;155015.78;;;10.21;100.00
46682;BME280;34101;53.430;-2.224;2022-09-13T05:44:49;155010.85;;;10.19;100.00
46682;BME280;34101;53.430;-2.224;2022-09-13T05:47:15;155003.74;;;10.16;100.00
46682;BME280;34101;53.430;-2.224;2022-09-13T05:49:43;155009.80;;;10.19;100.00
46682;BME280;34101;53.430;-2.224;2022-09-13T05:52:10;155017.88;;;10.22;100.00
46682;BME280;34101;53.430;-2.224;2022-09-13T05:54:37;155022.41;;;10.24;100.00
46682;BME280;34101;53.430;-2.224;2022-09-13T05:57:05;155026.45;;;10.25;100.00
46682;BME280;34101;53.430;-2.224;2022-09-13T05:59:32;155027.58;;;10.26;100.00
46682;BME280;34101;53.430;-2.224;2022-09-13T06:02:00;155033.32;;;10.28;100.00
46682;BME280;34101;53.430;-2.224;2022-09-13T06:04:27;155042.78;;;10.32;100.00
46682;BME280;34101;53.430;-2.224;2022-09-13T06:06:54;155044.80;;;10.33;100.00
46682;BME280;34101;53.430;-2.224;2022-09-13T06:09:22;155044.15;;;10.33;100.00
46682;BME280;34101;53.430;-2.224;2022-09-13T06:11:49;155054.18;;;10.37;100.00
46682;BME280;34101;53.430;-2.224;2022-09-13T06:14:16;155062.58;;;10.40;100.00
46682;BME280;34101;53.430;-2.224;2022-09-13T06:16:44;155088.61;;;10.50;100.00
46682;BME280;34101;53.430;-2.224;2022-09-13T06:19:11;155109.95;;;10.59;100.00
46682;BME280;34101;53.430;-2.224;2022-09-13T06:21:38;155124.34;;;10.65;100.00
46682;BME280;34101;53.430;-2.224;2022-09-13T06:24:06;155134.21;;;10.69;100.00
46682;BME280;34101;53.430;-2.224;2022-09-13T06:26:33;155148.28;;;10.75;100.00
46682;BME280;34101;53.430;-2.224;2022-09-13T06:29:00;155159.43;;;10.79;100.00
46682;BME280;34101;53.430;-2.224;2022-09-13T06:31:28;155171.81;;;10.84;100.00
46682;BME280;34101;53.430;-2.224;2022-09-13T06:33:58;155174.80;;;10.85;100.00
46682;BME280;34101;53.430;-2.224;2022-09-13T06:36:25;155186.93;;;10.90;100.00
46682;BME280;34101;53.430;-2.224;2022-09-13T06:38:53;155202.13;;;10.96;100.00
46682;BME280;34101;53.430;-2.224;2022-09-13T06:41:21;155201.72;;;10.96;100.00
46682;BME280;34101;53.430;-2.224;2022-09-13T06:43:52;155215.63;;;11.02;100.00
46682;BME280;34101;53.430;-2.224;2022-09-13T06:46:20;155213.53;;;11.01;100.00
46682;BME280;34101;53.430;-2.224;2022-09-13T06:48:47;155209.97;;;10.99;100.00
46682;BME280;34101;53.430;-2.224;2022-09-13T06:51:18;155210.46;;;11.00;100.00
46682;BME280;34101;53.430;-2.224;2022-09-13T06:53:46;155221.37;;;11.04;100.00
46682;BME280;34101;53.430;-2.224;2022-09-13T06:56:17;155232.45;;;11.08;100.00
46682;BME280;34101;53.430;-2.224;2022-09-13T06:58:46;155249.60;;;11.15;100.00
46682;BME280;34101;53.430;-2.224;2022-09-13T07:01:16;155268.60;;;11.23;100.00
46682;BME280;34101;53.430;-2.224;2022-09-13T07:03:45;155290.60;;;11.32;100.00
46682;BME280;34101;53.430;-2.224;2022-09-13T07:06:14;155312.20;;;11.41;100.00
46682;BME280;34101;53.430;-2.224;2022-09-13T07:08:43;155324.98;;;11.46;100.00
46682;BME280;34101;53.430;-2.224;2022-09-13T07:11:12;155344.80;;;11.54;100.00
46682;BME280;34101;53.430;-2.224;2022-09-13T07:13:40;155349.41;;;11.55;100.00
46682;BME280;34101;53.430;-2.224;2022-09-13T07:16:10;155372.70;;;11.65;100.00
46682;BME280;34101;53.430;-2.224;2022-09-13T07:18:37;155400.62;;;11.76;100.00
46682;BME280;34101;53.430;-2.224;2022-09-13T07:21:06;155426.10;;;11.86;100.00
46682;BME280;34101;53.430;-2.224;2022-09-13T07:23:36;155454.58;;;11.98;100.00
46682;BME280;34101;53.430;-2.224;2022-09-13T07:26:05;155480.88;;;12.08;100.00
46682;BME280;34101;53.430;-2.224;2022-09-13T07:28:34;155504.10;;;12.18;100.00
46682;BME280;34101;53.430;-2.224;2022-09-13T07:31:07;155524.42;;;12.26;100.00
46682;BME280;34101;53.430;-2.224;2022-09-13T07:33:35;155549.99;;;12.36;100.00
46682;BME280;34101;53.430;-2.224;2022-09-13T07:36:04;155581.15;;;12.49;100.00
46682;BME280;34101;53.430;-2.224;2022-09-13T07:38:33;155613.28;;;12.62;100.00
46682;BME280;34101;53.430;-2.224;2022-09-13T07:41:00;155646.47;;;12.75;100.00
46682;BME280;34101;53.430;-2.224;2022-09-13T07:43:28;155667.52;;;12.84;100.00
46682;BME280;34101;53.430;-2.224;2022-09-13T07:45:56;155701.85;;;12.97;100.00
46682;BME280;34101;53.430;-2.224;2022-09-13T07:48:24;155732.29;;;13.10;100.00
46682;BME280;34101;53.430;-2.224;2022-09-13T07:51:00;155775.94;;;13.27;100.00
46682;BME280;34101;53.430;-2.224;2022-09-13T07:53:29;155809.54;;;13.41;100.00
46682;BME280;34101;53.430;-2.224;2022-09-13T07:56:01;155832.30;;;13.50;100.00
46682;BME280;34101;53.430;-2.224;2022-09-13T07:58:29;155872.07;;;13.66;100.00
46682;BME280;34101;53.430;-2.224;2022-09-13T08:01:02;155878.14;;;13.68;100.00
46682;BME280;34101;53.430;-2.224;2022-09-13T08:03:31;155873.28;;;13.66;100.00
46682;BME280;34101;53.430;-2.224;2022-09-13T08:05:57;155900.50;;;13.77;100.00
46682;BME280;34101;53.430;-2.224;2022-09-13T08:08:25;155934.52;;;13.91;100.00
46682;BME280;34101;53.430;-2.224;2022-09-13T08:10:53;155944.97;;;13.95;100.00
46682;BME280;34101;53.430;-2.224;2022-09-13T08:13:20;155977.94;;;14.08;100.00
46682;BME280;34101;53.430;-2.224;2022-09-13T08:15:47;156035.47;;;14.31;100.00
46682;BME280;34101;53.430;-2.224;2022-09-13T08:18:14;156089.68;;;14.53;100.00
46682;BME280;34101;53.430;-2.224;2022-09-13T08:20:42;156133.76;;;14.71;100.00
46682;BME280;34101;53.430;-2.224;2022-09-13T08:23:12;156259.65;;;15.22;100.00
46682;BME280;34101;53.430;-2.224;2022-09-13T08:25:40;156455.15;;;16.00;100.00
46682;BME280;34101;53.430;-2.224;2022-09-13T08:28:11;156597.75;;;16.57;100.00
46682;BME280;34101;53.430;-2.224;2022-09-13T08:30:41;156727.18;;;17.09;100.00
46682;BME280;34101;53.430;-2.224;2022-09-13T08:33:09;156878.31;;;17.70;100.00
46682;BME280;34101;53.430;-2.224;2022-09-13T08:35:37;157091.22;;;18.55;100.00
46682;BME280;34101;53.430;-2.224;2022-09-13T08:38:06;157261.57;;;19.24;100.00
46682;BME280;34101;53.430;-2.224;2022-09-13T08:40:40;157432.39;;;19.92;100.00
46682;BME280;34101;53.430;-2.224;2022-09-13T08:43:16;157533.59;;;20.33;100.00
46682;BME280;34101;53.430;-2.224;2022-09-13T08:45:49;157628.23;;;20.70;100.00
46682;BME280;34101;53.430;-2.224;2022-09-13T08:48:21;157671.82;;;20.88;100.00
46682;BME280;34101;53.430;-2.224;2022-09-13T08:50:56;157754.28;;;21.21;100.00
46682;BME280;34101;53.430;-2.224;2022-09-13T08:53:28;157787.47;;;21.34;95.88
46682;BME280;34101;53.430;-2.224;2022-09-13T08:56:02;157875.08;;;21.69;91.73
46682;BME280;34101;53.430;-2.224;2022-09-13T08:58:49;158015.10;;;22.25;83.45
46682;BME280;34101;53.430;-2.224;2022-09-13T09:01:25;158027.55;;;22.30;71.61
46682;BME280;34101;53.430;-2.224;2022-09-13T09:04:00;158107.15;;;22.62;70.39
46682;BME280;34101;53.430;-2.224;2022-09-13T09:06:32;158155.66;;;22.82;68.26
46682;BME280;34101;53.430;-2.224;2022-09-13T09:09:03;158171.37;;;22.88;66.52
46682;BME280;34101;53.430;-2.224;2022-09-13T09:11:37;158220.70;;;23.08;65.66
46682;BME280;34101;53.430;-2.224;2022-09-13T09:14:16;158214.76;;;23.05;65.13
46682;BME280;34101;53.430;-2.224;2022-09-13T09:16:51;158229.41;;;23.11;65.07
46682;BME280;34101;53.430;-2.224;2022-09-13T09:19:22;158257.82;;;23.22;64.54
46682;BME280;34101;53.430;-2.224;2022-09-13T09:21:51;158177.47;;;22.90;65.24
46682;BME280;34101;53.430;-2.224;2022-09-13T09:24:21;158209.14;;;23.03;63.42
46682;BME280;34101;53.430;-2.224;2022-09-13T09:26:49;158315.71;;;23.46;62.48
46682;BME280;34101;53.430;-2.224;2022-09-13T09:29:19;158177.15;;;22.90;64.45
46682;BME280;34101;53.430;-2.224;2022-09-13T09:31:55;158090.79;;;22.56;66.09
46682;BME280;34101;53.430;-2.224;2022-09-13T09:34:43;158049.85;;;22.39;66.00
46682;BME280;34101;53.430;-2.224;2022-09-13T09:37:28;157982.23;;;22.12;66.47
46682;BME280;34101;53.430;-2.224;2022-09-13T09:39:59;157959.53;;;22.03;67.43
46682;BME280;34101;53.430;-2.224;2022-09-13T09:42:29;157780.96;;;21.32;69.92
46682;BME280;34101;53.430;-2.224;2022-09-13T09:45:02;157772.66;;;21.28;69.42
46682;BME280;34101;53.430;-2.224;2022-09-13T09:47:37;157853.60;;;21.61;65.97
46682;BME280;34101;53.430;-2.224;2022-09-13T09:50:12;157990.28;;;22.15;62.98
46682;BME280;34101;53.430;-2.224;2022-09-13T09:52:45;158062.63;;;22.44;63.71
46682;BME280;34101;53.430;-2.224;2022-09-13T09:55:18;158179.02;;;22.91;63.46
46682;BME280;34101;53.430;-2.224;2022-09-13T09:57:53;158245.94;;;23.18;63.63
46682;BME280;34101;53.430;-2.224;2022-09-13T10:00:24;158333.06;;;23.53;62.75
46682;BME280;34101;53.430;-2.224;2022-09-13T10:02:56;158249.03;;;23.19;60.80
46682;BME280;34101;53.430;-2.224;2022-09-13T10:05:25;158460.67;;;24.04;58.31
46682;BME280;34101;53.430;-2.224;2022-09-13T10:07:57;158421.49;;;23.88;54.86
46682;BME280;34101;53.430;-2.224;2022-09-13T10:10:33;158601.10;;;24.60;52.54
46682;BME280;34101;53.430;-2.224;2022-09-13T10:13:04;158579.02;;;24.51;53.45
46682;BME280;34101;53.430;-2.224;2022-09-13T10:15:34;158602.08;;;24.60;51.69
46682;BME280;34101;53.430;-2.224;2022-09-13T10:18:13;158708.08;;;25.03;50.82
46682;BME280;34101;53.430;-2.224;2022-09-13T10:20:42;158642.24;;;24.76;50.59
46682;BME280;34101;53.430;-2.224;2022-09-13T10:23:26;158686.08;;;24.94;51.00
46682;BME280;34101;53.430;-2.224;2022-09-13T10:26:00;158553.20;;;24.41;50.66
46682;BME280;34101;53.430;-2.224;2022-09-13T10:28:30;158524.28;;;24.29;50.74
46682;BME280;34101;53.430;-2.224;2022-09-13T10:31:03;158388.35;;;23.75;50.70
46682;BME280;34101;53.430;-2.224;2022-09-13T10:33:33;158457.57;;;24.02;50.08
46682;BME280;34101;53.430;-2.224;2022-09-13T10:36:04;158520.29;;;24.27;49.11
46682;BME280;34101;53.430;-2.224;2022-09-13T10:38:37;158360.82;;;23.64;52.81
46682;BME280;34101;53.430;-2.224;2022-09-13T10:41:08;158444.95;;;23.97;52.35
46682;BME280;34101;53.430;-2.224;2022-09-13T10:43:38;158656.58;;;24.82;50.49
46682;BME280;34101;53.430;-2.224;2022-09-13T10:46:09;158848.82;;;25.59;48.02
46682;BME280;34101;53.430;-2.224;2022-09-13T10:48:46;158755.59;;;25.22;45.09
46682;BME280;34101;53.430;-2.224;2022-09-13T10:51:28;158768.62;;;25.27;46.42
46682;BME280;34101;53.430;-2.224;2022-09-13T10:54:09;158624.73;;;24.69;47.22
46682;BME280;34101;53.430;-2.224;2022-09-13T10:56:42;158564.44;;;24.45;47.33
46682;BME280;34101;53.430;-2.224;2022-09-13T10:59:16;158843.52;;;25.57;45.58
46682;BME280;34101;53.430;-2.224;2022-09-13T11:01:52;158924.87;;;25.89;43.84
46682;BME280;34101;53.430;-2.224;2022-09-13T11:04:44;158939.87;;;25.95;43.64
46682;BME280;34101;53.430;-2.224;2022-09-13T11:07:30;158972.97;;;26.08;40.85
46682;BME280;34101;53.430;-2.224;2022-09-13T11:10:03;159001.01;;;26.20;40.73
46682;BME280;34101;53.430;-2.224;2022-09-13T11:12:40;159051.32;;;26.40;42.09
46682;BME280;34101;53.430;-2.224;2022-09-13T11:15:17;159062.65;;;26.44;39.67
46682;BME280;34101;53.430;-2.224;2022-09-13T11:18:08;159002.48;;;26.20;42.38
46682;BME280;34101;53.430;-2.224;2022-09-13T11:20:49;159023.84;;;26.29;41.57
46682;BME280;34101;53.430;-2.224;2022-09-13T11:23:35;158919.33;;;25.87;40.85
46682;BME280;34101;53.430;-2.224;2022-09-13T11:26:18;158789.49;;;25.35;41.67
46682;BME280;34101;53.430;-2.224;2022-09-13T11:28:56;158774.00;;;25.29;41.51
46682;BME280;34101;53.430;-2.224;2022-09-13T11:31:40;158781.83;;;25.32;43.13
46682;BME280;34101;53.430;-2.224;2022-09-13T11:34:20;158749.72;;;25.19;43.06
46682;BME280;34101;53.430;-2.224;2022-09-13T11:37:04;158711.01;;;25.04;43.65
46682;BME280;34101;53.430;-2.224;2022-09-13T11:39:37;158576.58;;;24.50;43.85
46682;BME280;34101;53.430;-2.224;2022-09-13T11:42:18;158537.97;;;24.35;44.44
46682;BME280;34101;53.430;-2.224;2022-09-13T11:45:01;158506.04;;;24.22;44.85
46682;BME280;34101;53.430;-2.224;2022-09-13T11:47:45;158343.24;;;23.57;47.37
46682;BME280;34101;53.430;-2.224;2022-09-13T11:50:24;158490.15;;;24.15;46.34
46682;BME280;34101;53.430;-2.224;2022-09-13T11:53:12;158584.81;;;24.53;45.24
46682;BME280;34101;53.430;-2.224;2022-09-13T11:55:46;158692.52;;;24.96;43.74
46682;BME280;34101;53.430;-2.224;2022-09-13T11:58:17;158772.29;;;25.28;43.58
46682;BME280;34101;53.430;-2.224;2022-09-13T12:00:51;158825.75;;;25.50;42.88
46682;BME280;34101;53.430;-2.224;2022-09-13T12:03:25;158820.86;;;25.48;41.43
46682;BME280;34101;53.430;-2.224;2022-09-13T12:05:58;158774.74;;;25.29;43.63
46682;BME280;34101;53.430;-2.224;2022-09-13T12:08:30;158731.95;;;25.12;43.81
46682;BME280;34101;53.430;-2.224;2022-09-13T12:11:03;158648.84;;;24.79;43.57
46682;BME280;34101;53.430;-2.224;2022-09-13T12:13:39;158532.35;;;24.32;44.66
46682;BME280;34101;53.430;-2.224;2022-09-13T12:16:10;158528.03;;;24.31;45.59
46682;BME280;34101;53.430;-2.224;2022-09-13T12:18:42;158598.41;;;24.59;45.84
46682;BME280;34101;53.430;-2.224;2022-09-13T12:21:12;158601.51;;;24.60;44.19
46682;BME280;34101;53.430;-2.224;2022-09-13T12:23:45;158554.75;;;24.41;45.57
46682;BME280;34101;53.430;-2.224;2022-09-13T12:26:18;158518.82;;;24.27;47.04
46682;BME280;34101;53.430;-2.224;2022-09-13T12:28:52;158534.14;;;24.33;46.37
46682;BME280;34101;53.430;-2.224;2022-09-13T12:31:24;158509.86;;;24.23;44.84
46682;BME280;34101;53.430;-2.224;2022-09-13T12:33:52;158489.83;;;24.15;45.21
46682;BME280;34101;53.430;-2.224;2022-09-13T12:36:32;158418.48;;;23.87;45.18
46682;BME280;34101;53.430;-2.224;2022-09-13T12:40:26;158426.38;;;23.90;45.01
46682;BME280;34101;53.430;-2.224;2022-09-13T12:43:09;158331.92;;;23.52;46.62
46682;BME280;34101;53.430;-2.224;2022-09-13T12:45:54;158386.15;;;23.74;47.18
46682;BME280;34101;53.430;-2.224;2022-09-13T12:48:41;158393.48;;;23.77;45.56
46682;BME280;34101;53.430;-2.224;2022-09-13T12:51:23;158317.91;;;23.47;49.04
46682;BME280;34101;53.430;-2.224;2022-09-13T12:54:24;158266.94;;;23.26;50.65
46682;BME280;34101;53.430;-2.224;2022-09-13T12:57:06;158251.80;;;23.20;50.20
46682;BME280;34101;53.430;-2.224;2022-09-13T12:59:54;158218.99;;;23.07;50.85